sensor_id;sensor_type;location;lat;lon;timestamp;pressure;altitude;pressure_sealevel;temperature;humidity
62978;BME280;49073;42.352;23.808;2023-01-26T00:02:06;95235.97;;;-2.24;100.00
62978;BME280;49073;42.352;23.808;2023-01-26T00:05:08;95236.78;;;-2.24;100.00
62978;BME280;49073;42.352;23.808;2023-01-26T00:08:08;95255.06;;;-2.13;100.00
62978;BME280;49073;42.352;23.808;2023-01-26T00:11:11;95244.34;;;-2.12;100.00
62978;BME280;49073;42.352;23.808;2023-01-26T00:14:11;95241.47;;;-2.21;100.00
62978;BME280;49073;42.352;23.808;2023-01-26T00:17:12;95236.53;;;-2.07;100.00
62978;BME280;49073;42.352;23.808;2023-01-26T00:20:13;95236.28;;;-2.10;100.00
62978;BME280;49073;42.352;23.808;2023-01-26T00:23:14;95240.69;;;-2.11;100.00
62978;BME280;49073;42.352;23.808;2023-01-26T00:26:24;95230.50;;;-2.23;100.00
62978;BME280;49073;42.352;23.808;2023-01-26T00:29:25;95229.97;;;-2.30;100.00
62978;BME280;49073;42.352;23.808;2023-01-26T00:32:26;95234.41;;;-2.25;100.00
62978;BME280;49073;42.352;23.808;2023-01-26T00:35:26;95222.38;;;-2.26;100.00
62978;BME280;49073;42.352;23.808;2023-01-26T00:38:27;95222.94;;;-2.19;100.00
62978;BME280;49073;42.352;23.808;2023-01-26T00:41:27;95223.44;;;-2.22;100.00
62978;BME280;49073;42.352;23.808;2023-01-26T00:44:47;95227.38;;;-2.25;100.00
62978;BME280;49073;42.352;23.808;2023-01-26T00:47:47;95226.06;;;-2.17;100.00
62978;BME280;49073;42.352;23.808;2023-01-26T00:50:51;95217.91;;;-2.36;100.00
62978;BME280;49073;42.352;23.808;2023-01-26T00:53:52;95211.69;;;-2.30;100.00
62978;BME280;49073;42.352;23.808;2023-01-26T00:56:53;95210.41;;;-2.12;100.00
62978;BME280;49073;42.352;23.808;2023-01-26T00:59:54;95206.75;;;-2.11;100.00
62978;BME280;49073;42.352;23.808;2023-01-26T01:02:54;95212.22;;;-2.28;100.00
62978;BME280;49073;42.352;23.808;2023-01-26T01:05:58;95206.47;;;-2.25;100.00
62978;BME280;49073;42.352;23.808;2023-01-26T01:08:59;95204.09;;;-2.31;100.00
62978;BME280;49073;42.352;23.808;2023-01-26T01:11:59;95193.66;;;-2.37;100.00
62978;BME280;49073;42.352;23.808;2023-01-26T01:15:00;95189.75;;;-2.34;100.00
62978;BME280;49073;42.352;23.808;2023-01-26T01:18:01;95191.34;;;-2.33;100.00
62978;BME280;49073;42.352;23.808;2023-01-26T01:21:10;95186.66;;;-2.21;100.00
62978;BME280;49073;42.352;23.808;2023-01-26T01:24:11;95181.66;;;-2.27;100.00
62978;BME280;49073;42.352;23.808;2023-01-26T01:27:11;95180.63;;;-2.31;100.00
62978;BME280;49073;42.352;23.808;2023-01-26T01:30:13;95168.91;;;-2.24;100.00
62978;BME280;49073;42.352;23.808;2023-01-26T01:33:14;95168.38;;;-2.21;100.00
62978;BME280;49073;42.352;23.808;2023-01-26T01:36:15;95162.63;;;-2.23;100.00
62978;BME280;49073;42.352;23.808;2023-01-26T01:39:16;95169.16;;;-2.20;100.00
62978;BME280;49073;42.352;23.808;2023-01-26T01:42:16;95165.22;;;-2.33;100.00
62978;BME280;49073;42.352;23.808;2023-01-26T01:45:41;95173.31;;;-2.35;100.00
62978;BME280;49073;42.352;23.808;2023-01-26T01:52:00;95163.41;;;-2.27;100.00
62978;BME280;49073;42.352;23.808;2023-01-26T01:55:11;95155.03;;;-2.29;100.00
62978;BME280;49073;42.352;23.808;2023-01-26T01:58:13;95150.34;;;-2.32;100.00
62978;BME280;49073;42.352;23.808;2023-01-26T02:01:14;95148.53;;;-2.32;100.00
62978;BME280;49073;42.352;23.808;2023-01-26T02:04:15;95147.44;;;-2.36;100.00
62978;BME280;49073;42.352;23.808;2023-01-26T02:07:16;95144.59;;;-2.29;100.00
62978;BME280;49073;42.352;23.808;2023-01-26T02:10:18;95140.94;;;-2.34;100.00
62978;BME280;49073;42.352;23.808;2023-01-26T02:13:21;95137.28;;;-2.38;100.00
62978;BME280;49073;42.352;23.808;2023-01-26T02:16:24;95139.63;;;-2.41;100.00
62978;BME280;49073;42.352;23.808;2023-01-26T02:28:54;95125.56;;;-2.35;100.00
62978;BME280;49073;42.352;23.808;2023-01-26T02:31:55;95125.56;;;-2.30;100.00
62978;BME280;49073;42.352;23.808;2023-01-26T02:34:56;95117.22;;;-2.16;100.00
62978;BME280;49073;42.352;23.808;2023-01-26T02:37:57;95110.41;;;-2.12;100.00
62978;BME280;49073;42.352;23.808;2023-01-26T02:41:02;95114.59;;;-2.27;100.00
62978;BME280;49073;42.352;23.808;2023-01-26T02:44:06;95112.00;;;-2.27;100.00
62978;BME280;49073;42.352;23.808;2023-01-26T02:47:12;95101.78;;;-2.28;100.00
62978;BME280;49073;42.352;23.808;2023-01-26T02:50:13;95103.88;;;-2.36;100.00
62978;BME280;49073;42.352;23.808;2023-01-26T02:53:14;95103.88;;;-2.41;100.00
62978;BME280;49073;42.352;23.808;2023-01-26T02:56:14;95094.25;;;-2.30;100.00
62978;BME280;49073;42.352;23.808;2023-01-26T02:59:15;95095.25;;;-2.36;100.00
62978;BME280;49073;42.352;23.808;2023-01-26T03:02:15;95082.22;;;-2.31;100.00
62978;BME280;49073;42.352;23.808;2023-01-26T03:05:17;95083.00;;;-2.30;100.00
62978;BME280;49073;42.352;23.808;2023-01-26T03:08:17;95074.91;;;-2.34;100.00
62978;BME280;49073;42.352;23.808;2023-01-26T03:11:18;95072.56;;;-2.30;100.00
62978;BME280;49073;42.352;23.808;2023-01-26T03:14:19;95064.22;;;-2.32;100.00
62978;BME280;49073;42.352;23.808;2023-01-26T03:17:20;95057.16;;;-2.16;100.00
62978;BME280;49073;42.352;23.808;2023-01-26T03:20:20;95056.13;;;-2.15;100.00
62978;BME280;49073;42.352;23.808;2023-01-26T03:23:39;95052.19;;;-2.13;100.00
62978;BME280;49073;42.352;23.808;2023-01-26T03:26:58;95049.34;;;-2.32;100.00
62978;BME280;49073;42.352;23.808;2023-01-26T03:30:18;95043.84;;;-2.20;100.00
62978;BME280;49073;42.352;23.808;2023-01-26T03:33:19;95051.16;;;-2.17;100.00
62978;BME280;49073;42.352;23.808;2023-01-26T03:36:19;95046.47;;;-2.36;100.00
62978;BME280;49073;42.352;23.808;2023-01-26T03:39:20;95035.78;;;-2.29;100.00
62978;BME280;49073;42.352;23.808;2023-01-26T03:42:39;95043.34;;;-2.48;100.00
62978;BME280;49073;42.352;23.808;2023-01-26T03:46:01;95037.84;;;-2.57;100.00
62978;BME280;49073;42.352;23.808;2023-01-26T03:49:20;95034.47;;;-2.63;100.00
62978;BME280;49073;42.352;23.808;2023-01-26T03:52:39;95026.09;;;-2.70;100.00
62978;BME280;49073;42.352;23.808;2023-01-26T03:55:58;95028.97;;;-2.66;100.00
62978;BME280;49073;42.352;23.808;2023-01-26T03:59:20;95014.34;;;-2.72;100.00
62978;BME280;49073;42.352;23.808;2023-01-26T04:02:36;95014.63;;;-2.58;100.00
62978;BME280;49073;42.352;23.808;2023-01-26T04:05:57;95009.13;;;-2.62;100.00
62978;BME280;49073;42.352;23.808;2023-01-26T04:09:16;94999.75;;;-2.73;100.00
62978;BME280;49073;42.352;23.808;2023-01-26T04:12:17;95003.91;;;-2.78;100.00
62978;BME280;49073;42.352;23.808;2023-01-26T04:15:17;94998.72;;;-2.78;100.00
62978;BME280;49073;42.352;23.808;2023-01-26T04:18:36;95000.00;;;-2.70;100.00
62978;BME280;49073;42.352;23.808;2023-01-26T04:21:57;95000.28;;;-2.71;100.00
62978;BME280;49073;42.352;23.808;2023-01-26T04:24:58;94997.38;;;-2.75;100.00
62978;BME280;49073;42.352;23.808;2023-01-26T04:27:58;94994.00;;;-2.81;100.00
62978;BME280;49073;42.352;23.808;2023-01-26T04:30:59;94981.75;;;-2.75;100.00
62978;BME280;49073;42.352;23.808;2023-01-26T04:34:00;94976.78;;;-2.61;100.00
62978;BME280;49073;42.352;23.808;2023-01-26T04:37:00;94977.84;;;-2.57;100.00
62978;BME280;49073;42.352;23.808;2023-01-26T04:40:01;94976.28;;;-2.58;100.00
62978;BME280;49073;42.352;23.808;2023-01-26T04:43:03;94975.22;;;-2.67;100.00
62978;BME280;49073;42.352;23.808;2023-01-26T04:46:05;94971.34;;;-2.65;100.00
62978;BME280;49073;42.352;23.808;2023-01-26T04:49:06;94959.56;;;-2.67;100.00
62978;BME280;49073;42.352;23.808;2023-01-26T04:52:07;94964.03;;;-2.63;100.00
62978;BME280;49073;42.352;23.808;2023-01-26T04:55:08;94970.53;;;-2.70;100.00
62978;BME280;49073;42.352;23.808;2023-01-26T04:58:08;94971.06;;;-2.79;100.00
62978;BME280;49073;42.352;23.808;2023-01-26T05:01:09;94977.59;;;-2.60;100.00
62978;BME280;49073;42.352;23.808;2023-01-26T05:04:10;94967.41;;;-2.57;100.00
62978;BME280;49073;42.352;23.808;2023-01-26T05:07:12;94968.97;;;-2.76;100.00
62978;BME280;49073;42.352;23.808;2023-01-26T05:10:12;94966.88;;;-2.74;100.00
62978;BME280;49073;42.352;23.808;2023-01-26T05:13:13;94960.88;;;-2.75;100.00
62978;BME280;49073;42.352;23.808;2023-01-26T05:16:14;94965.84;;;-2.79;100.00
62978;BME280;49073;42.352;23.808;2023-01-26T05:19:15;94965.31;;;-2.81;100.00
62978;BME280;49073;42.352;23.808;2023-01-26T05:22:15;94971.59;;;-2.82;100.00
62978;BME280;49073;42.352;23.808;2023-01-26T05:25:16;94960.88;;;-2.80;100.00
62978;BME280;49073;42.352;23.808;2023-01-26T05:28:16;94972.09;;;-2.80;100.00
62978;BME280;49073;42.352;23.808;2023-01-26T05:31:17;94968.19;;;-2.77;100.00
62978;BME280;49073;42.352;23.808;2023-01-26T05:34:19;94961.91;;;-2.71;100.00
62978;BME280;49073;42.352;23.808;2023-01-26T05:37:19;94964.00;;;-2.78;100.00
62978;BME280;49073;42.352;23.808;2023-01-26T05:40:20;94961.41;;;-2.73;100.00
62978;BME280;49073;42.352;23.808;2023-01-26T05:43:21;94953.56;;;-2.73;100.00
62978;BME280;49073;42.352;23.808;2023-01-26T05:46:21;94953.03;;;-2.70;100.00
62978;BME280;49073;42.352;23.808;2023-01-26T05:49:22;94949.66;;;-2.70;100.00
62978;BME280;49073;42.352;23.808;2023-01-26T05:52:23;94945.50;;;-2.71;100.00
62978;BME280;49073;42.352;23.808;2023-01-26T05:55:23;94947.06;;;-2.60;100.00
62978;BME280;49073;42.352;23.808;2023-01-26T05:58:24;94942.63;;;-2.65;100.00
62978;BME280;49073;42.352;23.808;2023-01-26T06:01:24;94945.25;;;-2.59;100.00
62978;BME280;49073;42.352;23.808;2023-01-26T06:04:25;94940.53;;;-2.52;100.00
62978;BME280;49073;42.352;23.808;2023-01-26T06:07:26;94945.22;;;-2.54;100.00
62978;BME280;49073;42.352;23.808;2023-01-26T06:10:26;94947.31;;;-2.56;100.00
62978;BME280;49073;42.352;23.808;2023-01-26T06:13:27;94950.69;;;-2.61;100.00
62978;BME280;49073;42.352;23.808;2023-01-26T06:16:28;94946.78;;;-2.69;100.00
62978;BME280;49073;42.352;23.808;2023-01-26T06:19:29;94951.25;;;-2.74;100.00
62978;BME280;49073;42.352;23.808;2023-01-26T06:22:29;94943.94;;;-2.67;100.00
62978;BME280;49073;42.352;23.808;2023-01-26T06:25:29;94947.59;;;-2.73;100.00
62978;BME280;49073;42.352;23.808;2023-01-26T06:28:30;94938.97;;;-2.74;100.00
62978;BME280;49073;42.352;23.808;2023-01-26T06:31:31;94940.53;;;-2.63;100.00
62978;BME280;49073;42.352;23.808;2023-01-26T06:34:32;94939.75;;;-2.58;100.00
62978;BME280;49073;42.352;23.808;2023-01-26T06:37:33;94937.13;;;-2.53;100.00
62978;BME280;49073;42.352;23.808;2023-01-26T06:40:34;94931.16;;;-2.53;100.00
62978;BME280;49073;42.352;23.808;2023-01-26T06:43:35;94930.84;;;-2.46;100.00
62978;BME280;49073;42.352;23.808;2023-01-26T06:46:36;94926.94;;;-2.44;100.00
62978;BME280;49073;42.352;23.808;2023-01-26T06:49:36;94934.00;;;-2.55;100.00
62978;BME280;49073;42.352;23.808;2023-01-26T06:52:40;94931.91;;;-2.53;100.00
62978;BME280;49073;42.352;23.808;2023-01-26T06:55:41;94920.38;;;-2.36;100.00
62978;BME280;49073;42.352;23.808;2023-01-26T06:58:42;94920.94;;;-2.50;100.00
62978;BME280;49073;42.352;23.808;2023-01-26T07:01:44;94920.94;;;-2.50;100.00
62978;BME280;49073;42.352;23.808;2023-01-26T07:04:48;94919.88;;;-2.43;100.00
62978;BME280;49073;42.352;23.808;2023-01-26T07:07:49;94908.38;;;-2.37;100.00
62978;BME280;49073;42.352;23.808;2023-01-26T07:10:50;94903.44;;;-2.39;100.00
62978;BME280;49073;42.352;23.808;2023-01-26T07:13:50;94902.66;;;-2.39;100.00
62978;BME280;49073;42.352;23.808;2023-01-26T07:16:51;94897.97;;;-2.32;100.00
62978;BME280;49073;42.352;23.808;2023-01-26T07:19:51;94894.84;;;-2.34;100.00
62978;BME280;49073;42.352;23.808;2023-01-26T07:22:52;94891.16;;;-2.38;100.00
62978;BME280;49073;42.352;23.808;2023-01-26T07:25:53;94896.66;;;-2.35;100.00
62978;BME280;49073;42.352;23.808;2023-01-26T07:28:53;94903.72;;;-2.35;100.00
62978;BME280;49073;42.352;23.808;2023-01-26T07:31:54;94898.47;;;-2.30;100.00
62978;BME280;49073;42.352;23.808;2023-01-26T07:34:54;94898.94;;;-2.12;100.00
62978;BME280;49073;42.352;23.808;2023-01-26T07:37:56;94902.63;;;-2.24;100.00
62978;BME280;49073;42.352;23.808;2023-01-26T07:40:58;94895.31;;;-2.22;100.00
62978;BME280;49073;42.352;23.808;2023-01-26T07:43:58;94892.72;;;-2.22;100.00
62978;BME280;49073;42.352;23.808;2023-01-26T07:46:59;94892.19;;;-2.18;100.00
62978;BME280;49073;42.352;23.808;2023-01-26T07:50:00;94890.28;;;-2.08;100.00
62978;BME280;49073;42.352;23.808;2023-01-26T07:53:00;94883.50;;;-2.09;100.00
62978;BME280;49073;42.352;23.808;2023-01-26T07:56:09;94877.72;;;-1.95;100.00
62978;BME280;49073;42.352;23.808;2023-01-26T07:59:10;94879.03;;;-1.98;100.00
62978;BME280;49073;42.352;23.808;2023-01-26T08:02:11;94874.31;;;-1.96;100.00
62978;BME280;49073;42.352;23.808;2023-01-26T08:05:12;94878.28;;;-2.09;100.00
62978;BME280;49073;42.352;23.808;2023-01-26T08:08:12;94876.19;;;-2.07;100.00
62978;BME280;49073;42.352;23.808;2023-01-26T08:11:13;94876.47;;;-2.08;100.00
62978;BME280;49073;42.352;23.808;2023-01-26T08:14:14;94864.47;;;-2.09;100.00
62978;BME280;49073;42.352;23.808;2023-01-26T08:17:14;94864.22;;;-2.13;100.00
62978;BME280;49073;42.352;23.808;2023-01-26T08:20:16;94862.84;;;-2.00;100.00
62978;BME280;49073;42.352;23.808;2023-01-26T08:23:17;94859.50;;;-2.06;100.00
62978;BME280;49073;42.352;23.808;2023-01-26T08:26:18;94853.91;;;-1.88;100.00
62978;BME280;49073;42.352;23.808;2023-01-26T08:29:20;94861.75;;;-1.88;100.00
62978;BME280;49073;42.352;23.808;2023-01-26T08:32:21;94849.75;;;-1.90;100.00
62978;BME280;49073;42.352;23.808;2023-01-26T08:35:21;94852.84;;;-1.82;100.00
62978;BME280;49073;42.352;23.808;2023-01-26T08:38:22;94868.56;;;-1.93;100.00
62978;BME280;49073;42.352;23.808;2023-01-26T08:41:22;94864.16;;;-1.97;100.00
62978;BME280;49073;42.352;23.808;2023-01-26T08:44:23;94863.59;;;-1.89;100.00
62978;BME280;49073;42.352;23.808;2023-01-26T08:47:23;94863.88;;;-1.96;100.00
62978;BME280;49073;42.352;23.808;2023-01-26T08:50:24;94859.16;;;-1.94;100.00
62978;BME280;49073;42.352;23.808;2023-01-26T08:53:26;94857.59;;;-1.90;100.00
62978;BME280;49073;42.352;23.808;2023-01-26T08:56:28;94856.41;;;-1.63;100.00
62978;BME280;49073;42.352;23.808;2023-01-26T08:59:29;94866.41;;;-1.75;100.00
62978;BME280;49073;42.352;23.808;2023-01-26T09:02:29;94864.25;;;-1.63;100.00
62978;BME280;49073;42.352;23.808;2023-01-26T09:05:32;94858.22;;;-1.63;100.00
62978;BME280;49073;42.352;23.808;2023-01-26T09:08:33;94856.38;;;-1.57;100.00
62978;BME280;49073;42.352;23.808;2023-01-26T09:11:33;94857.31;;;-1.43;100.00
62978;BME280;49073;42.352;23.808;2023-01-26T09:14:34;94855.78;;;-1.49;100.00
62978;BME280;49073;42.352;23.808;2023-01-26T09:17:35;94845.84;;;-1.47;100.00
62978;BME280;49073;42.352;23.808;2023-01-26T09:20:37;94840.97;;;-1.59;100.00
62978;BME280;49073;42.352;23.808;2023-01-26T09:23:37;94827.66;;;-1.63;100.00
62978;BME280;49073;42.352;23.808;2023-01-26T09:26:38;94829.91;;;-1.51;100.00
62978;BME280;49073;42.352;23.808;2023-01-26T09:29:38;94813.22;;;-1.55;100.00
62978;BME280;49073;42.352;23.808;2023-01-26T09:32:39;94826.28;;;-1.55;100.00
62978;BME280;49073;42.352;23.808;2023-01-26T09:35:39;94818.41;;;-1.50;100.00
62978;BME280;49073;42.352;23.808;2023-01-26T09:38:40;94812.03;;;-1.33;100.00
62978;BME280;49073;42.352;23.808;2023-01-26T09:45:17;94793.09;;;-1.20;100.00
62978;BME280;49073;42.352;23.808;2023-01-26T09:48:36;94792.41;;;-1.30;100.00
62978;BME280;49073;42.352;23.808;2023-01-26T09:55:02;94791.38;;;-1.35;100.00
62978;BME280;49073;42.352;23.808;2023-01-26T09:58:13;94800.13;;;-1.50;100.00
62978;BME280;49073;42.352;23.808;2023-01-26T10:01:32;94789.50;;;-1.58;100.00
62978;BME280;49073;42.352;23.808;2023-01-26T10:04:39;94781.88;;;-1.55;100.00
62978;BME280;49073;42.352;23.808;2023-01-26T10:07:44;94792.88;;;-1.58;100.00
62978;BME280;49073;42.352;23.808;2023-01-26T10:10:55;94790.84;;;-1.66;100.00
62978;BME280;49073;42.352;23.808;2023-01-26T10:14:08;94781.59;;;-1.53;100.00
62978;BME280;49073;42.352;23.808;2023-01-26T10:17:37;94768.84;;;-1.60;100.00
62978;BME280;49073;42.352;23.808;2023-01-26T10:20:42;94757.81;;;-1.52;100.00
62978;BME280;49073;42.352;23.808;2023-01-26T10:23:47;94750.16;;;-1.43;100.00
62978;BME280;49073;42.352;23.808;2023-01-26T10:26:49;94742.88;;;-1.46;100.00
62978;BME280;49073;42.352;23.808;2023-01-26T10:29:52;94732.31;;;-1.36;100.00
62978;BME280;49073;42.352;23.808;2023-01-26T10:32:52;94723.44;;;-1.35;100.00
62978;BME280;49073;42.352;23.808;2023-01-26T10:35:53;94704.97;;;-1.19;100.00
62978;BME280;49073;42.352;23.808;2023-01-26T10:39:05;94699.22;;;-1.16;100.00
62978;BME280;49073;42.352;23.808;2023-01-26T10:42:17;94701.78;;;-1.11;100.00
62978;BME280;49073;42.352;23.808;2023-01-26T10:45:30;94695.19;;;-1.08;100.00
62978;BME280;49073;42.352;23.808;2023-01-26T10:48:31;94692.09;;;-1.10;100.00
62978;BME280;49073;42.352;23.808;2023-01-26T10:51:35;94674.06;;;-1.12;100.00
62978;BME280;49073;42.352;23.808;2023-01-26T10:54:36;94665.09;;;-1.06;100.00
62978;BME280;49073;42.352;23.808;2023-01-26T10:57:40;94657.66;;;-1.18;100.00
62978;BME280;49073;42.352;23.808;2023-01-26T11:00:41;94658.59;;;-1.08;100.00
62978;BME280;49073;42.352;23.808;2023-01-26T11:04:04;94651.03;;;-1.10;100.00
62978;BME280;49073;42.352;23.808;2023-01-26T11:07:26;94640.16;;;-1.22;100.00
62978;BME280;49073;42.352;23.808;2023-01-26T11:10:34;94635.41;;;-1.15;100.00
62978;BME280;49073;42.352;23.808;2023-01-26T11:13:35;94631.94;;;-1.10;100.00
62978;BME280;49073;42.352;23.808;2023-01-26T11:16:36;94633.94;;;-1.02;100.00
62978;BME280;49073;42.352;23.808;2023-01-26T11:19:57;94622.44;;;-1.25;100.00
62978;BME280;49073;42.352;23.808;2023-01-26T11:23:32;94614.38;;;-1.29;100.00
62978;BME280;49073;42.352;23.808;2023-01-26T11:40:39;94596.97;;;-1.39;100.00
62978;BME280;49073;42.352;23.808;2023-01-26T11:43:22;94577.97;;;-1.44;100.00
62978;BME280;49073;42.352;23.808;2023-01-26T11:46:48;94570.50;;;-1.56;100.00
62978;BME280;49073;42.352;23.808;2023-01-26T11:50:16;94577.84;;;-1.58;100.00
62978;BME280;49073;42.352;23.808;2023-01-26T12:00:14;94562.50;;;-1.41;100.00
62978;BME280;49073;42.352;23.808;2023-01-26T12:03:40;94553.09;;;-1.42;100.00
62978;BME280;49073;42.352;23.808;2023-01-26T12:06:46;94547.59;;;-1.21;100.00
62978;BME280;49073;42.352;23.808;2023-01-26T12:09:48;94545.34;;;-1.28;100.00
62978;BME280;49073;42.352;23.808;2023-01-26T12:13:00;94542.50;;;-1.32;100.00
62978;BME280;49073;42.352;23.808;2023-01-26T12:16:12;94538.03;;;-1.50;100.00
62978;BME280;49073;42.352;23.808;2023-01-26T12:26:17;94542.81;;;-1.33;100.00
62978;BME280;49073;42.352;23.808;2023-01-26T12:32:12;94528.84;;;-1.48;100.00
62978;BME280;49073;42.352;23.808;2023-01-26T12:35:26;94520.78;;;-1.51;100.00
62978;BME280;49073;42.352;23.808;2023-01-26T12:45:14;94524.66;;;-1.68;100.00
62978;BME280;49073;42.352;23.808;2023-01-26T12:48:22;94516.91;;;-1.78;100.00
62978;BME280;49073;42.352;23.808;2023-01-26T12:51:36;94515.09;;;-1.78;100.00
62978;BME280;49073;42.352;23.808;2023-01-26T13:01:22;94508.41;;;-1.65;100.00
62978;BME280;49073;42.352;23.808;2023-01-26T13:04:23;94519.00;;;-1.80;100.00
62978;BME280;49073;42.352;23.808;2023-01-26T13:07:36;94512.34;;;-1.92;100.00
62978;BME280;49073;42.352;23.808;2023-01-26T13:10:50;94509.69;;;-1.86;100.00
62978;BME280;49073;42.352;23.808;2023-01-26T13:13:52;94495.50;;;-1.80;100.00
62978;BME280;49073;42.352;23.808;2023-01-26T13:16:53;94490.28;;;-1.80;100.00
62978;BME280;49073;42.352;23.808;2023-01-26T13:19:54;94491.69;;;-1.64;100.00
62978;BME280;49073;42.352;23.808;2023-01-26T13:22:59;94500.84;;;-1.66;100.00
62978;BME280;49073;42.352;23.808;2023-01-26T13:26:20;94493.81;;;-1.66;100.00
62978;BME280;49073;42.352;23.808;2023-01-26T13:35:36;94487.88;;;-1.52;100.00
62978;BME280;49073;42.352;23.808;2023-01-26T13:38:41;94479.19;;;-1.48;100.00
62978;BME280;49073;42.352;23.808;2023-01-26T13:41:45;94474.75;;;-1.47;100.00
62978;BME280;49073;42.352;23.808;2023-01-26T13:44:51;94468.97;;;-1.44;100.00
62978;BME280;49073;42.352;23.808;2023-01-26T13:47:56;94462.53;;;-1.52;100.00
62978;BME280;49073;42.352;23.808;2023-01-26T13:51:01;94463.00;;;-1.50;100.00
62978;BME280;49073;42.352;23.808;2023-01-26T13:54:12;94463.25;;;-1.46;100.00
62978;BME280;49073;42.352;23.808;2023-01-26T13:57:22;94449.41;;;-1.47;100.00
62978;BME280;49073;42.352;23.808;2023-01-26T14:00:23;94447.56;;;-1.46;100.00
62978;BME280;49073;42.352;23.808;2023-01-26T14:03:24;94443.59;;;-1.63;100.00
62978;BME280;49073;42.352;23.808;2023-01-26T14:06:25;94449.38;;;-1.66;100.00
62978;BME280;49073;42.352;23.808;2023-01-26T14:09:27;94443.81;;;-1.59;100.00
62978;BME280;49073;42.352;23.808;2023-01-26T14:15:40;94416.53;;;-1.53;100.00
62978;BME280;49073;42.352;23.808;2023-01-26T14:18:41;94427.22;;;-1.49;100.00
62978;BME280;49073;42.352;23.808;2023-01-26T14:24:52;94415.56;;;-1.57;100.00
62978;BME280;49073;42.352;23.808;2023-01-26T14:27:53;94418.09;;;-1.52;100.00
62978;BME280;49073;42.352;23.808;2023-01-26T14:31:01;94423.28;;;-1.47;100.00
62978;BME280;49073;42.352;23.808;2023-01-26T14:34:08;94420.72;;;-1.52;100.00
62978;BME280;49073;42.352;23.808;2023-01-26T14:37:13;94412.75;;;-1.41;100.00
62978;BME280;49073;42.352;23.808;2023-01-26T14:40:22;94402.38;;;-1.47;100.00
62978;BME280;49073;42.352;23.808;2023-01-26T14:43:24;94399.59;;;-1.17;100.00
62978;BME280;49073;42.352;23.808;2023-01-26T14:46:36;94399.22;;;-1.29;100.00
62978;BME280;49073;42.352;23.808;2023-01-26T14:49:40;94385.91;;;-1.28;100.00
62978;BME280;49073;42.352;23.808;2023-01-26T14:52:44;94379.94;;;-1.14;100.00
62978;BME280;49073;42.352;23.808;2023-01-26T14:55:47;94388.91;;;-1.01;100.00
62978;BME280;49073;42.352;23.808;2023-01-26T14:58:51;94389.88;;;-0.97;100.00
62978;BME280;49073;42.352;23.808;2023-01-26T15:02:26;94390.94;;;-0.98;100.00
62978;BME280;49073;42.352;23.808;2023-01-26T15:05:37;94388.09;;;-1.02;100.00
62978;BME280;49073;42.352;23.808;2023-01-26T15:11:58;94385.31;;;-1.06;100.00
62978;BME280;49073;42.352;23.808;2023-01-26T15:15:19;94381.53;;;-0.99;100.00
62978;BME280;49073;42.352;23.808;2023-01-26T15:18:20;94379.41;;;-0.97;100.00
62978;BME280;49073;42.352;23.808;2023-01-26T15:21:21;94384.91;;;-0.99;100.00
62978;BME280;49073;42.352;23.808;2023-01-26T15:24:27;94379.50;;;-1.03;100.00
62978;BME280;49073;42.352;23.808;2023-01-26T15:27:35;94365.31;;;-0.82;100.00
62978;BME280;49073;42.352;23.808;2023-01-26T15:30:36;94365.22;;;-0.77;100.00
62978;BME280;49073;42.352;23.808;2023-01-26T15:33:51;94366.56;;;-0.80;100.00
62978;BME280;49073;42.352;23.808;2023-01-26T15:36:52;94366.19;;;-0.73;100.00
62978;BME280;49073;42.352;23.808;2023-01-26T15:39:53;94358.53;;;-0.83;100.00
62978;BME280;49073;42.352;23.808;2023-01-26T15:46:09;94354.63;;;-0.86;100.00
62978;BME280;49073;42.352;23.808;2023-01-26T15:49:11;94354.41;;;-0.90;100.00
62978;BME280;49073;42.352;23.808;2023-01-26T15:52:16;94351.97;;;-1.00;100.00
62978;BME280;49073;42.352;23.808;2023-01-26T15:55:24;94335.75;;;-0.83;100.00
62978;BME280;49073;42.352;23.808;2023-01-26T15:58:25;94335.34;;;-0.90;100.00
62978;BME280;49073;42.352;23.808;2023-01-26T16:01:27;94320.56;;;-0.67;100.00
62978;BME280;49073;42.352;23.808;2023-01-26T16:04:28;94330.50;;;-0.83;100.00
62978;BME280;49073;42.352;23.808;2023-01-26T16:07:29;94321.13;;;-0.70;100.00
62978;BME280;49073;42.352;23.808;2023-01-26T16:10:29;94315.50;;;-0.63;100.00
62978;BME280;49073;42.352;23.808;2023-01-26T16:13:30;94310.06;;;-0.81;100.00
62978;BME280;49073;42.352;23.808;2023-01-26T16:16:31;94308.53;;;-0.82;100.00
62978;BME280;49073;42.352;23.808;2023-01-26T16:19:32;94296.81;;;-0.84;100.00
62978;BME280;49073;42.352;23.808;2023-01-26T16:22:32;94305.25;;;-0.88;100.00
62978;BME280;49073;42.352;23.808;2023-01-26T16:25:33;94309.47;;;-0.92;100.00
62978;BME280;49073;42.352;23.808;2023-01-26T16:28:33;94299.78;;;-0.91;100.00
62978;BME280;49073;42.352;23.808;2023-01-26T16:31:34;94297.38;;;-0.74;100.00
62978;BME280;49073;42.352;23.808;2023-01-26T16:34:37;94303.31;;;-0.68;100.00
62978;BME280;49073;42.352;23.808;2023-01-26T16:37:38;94294.66;;;-0.68;100.00
62978;BME280;49073;42.352;23.808;2023-01-26T16:40:40;94302.63;;;-0.60;100.00
62978;BME280;49073;42.352;23.808;2023-01-26T16:43:44;94298.94;;;-0.59;100.00
62978;BME280;49073;42.352;23.808;2023-01-26T16:46:45;94298.06;;;-0.68;100.00
62978;BME280;49073;42.352;23.808;2023-01-26T16:49:46;94296.81;;;-0.70;100.00
62978;BME280;49073;42.352;23.808;2023-01-26T16:52:47;94295.06;;;-0.61;100.00
62978;BME280;49073;42.352;23.808;2023-01-26T16:55:47;94296.13;;;-0.62;100.00
62978;BME280;49073;42.352;23.808;2023-01-26T16:58:48;94298.84;;;-0.67;100.00
62978;BME280;49073;42.352;23.808;2023-01-26T17:01:48;94297.97;;;-0.77;100.00
62978;BME280;49073;42.352;23.808;2023-01-26T17:04:49;94286.66;;;-0.58;100.00
62978;BME280;49073;42.352;23.808;2023-01-26T17:07:50;94280.53;;;-0.67;100.00
62978;BME280;49073;42.352;23.808;2023-01-26T17:10:51;94268.50;;;-0.68;100.00
62978;BME280;49073;42.352;23.808;2023-01-26T17:13:52;94272.66;;;-0.67;100.00